Time;durP1;ratioP1;P1;durP2;ratioP2;P2;SDS_P1;SDS_P2;PMS_P1;PMS_P2;Temp;Humidity;BMP_temperature;BMP_pressure;BME280_temperature;BME280_humidity;BME280_pressure;Samples;Min_cycle;Max_cycle;Signal;HPM_P1;HPM_P2
2023/11/04 00:00:40;;;;;;;471.27;449.87;;;5.20;99.90;;;;;;5032379;28;20467;-75
2023/11/04 00:03:07;;;;;;;483.77;461.47;;;5.30;99.90;;;;;;5032610;28;20453;-75
2023/11/04 00:05:36;;;;;;;488.77;466.27;;;5.40;99.90;;;;;;5032613;28;20814;-75
2023/11/04 00:08:04;;;;;;;444.47;424.93;;;5.50;99.90;;;;;;5032308;28;20450;-75
2023/11/04 00:10:31;;;;;;;376.10;360.40;;;5.60;99.90;;;;;;5032419;28;20845;-74
2023/11/04 00:12:58;;;;;;;348.07;334.27;;;5.70;99.90;;;;;;5032284;28;20543;-75
2023/11/04 00:15:25;;;;;;;319.23;307.00;;;5.80;99.90;;;;;;5032115;28;20456;-75
2023/11/04 00:17:54;;;;;;;305.77;294.07;;;5.90;99.90;;;;;;5032116;28;20927;-75
2023/11/04 00:20:21;;;;;;;287.07;276.50;;;6.00;99.90;;;;;;5032479;28;20946;-75
2023/11/04 00:22:49;;;;;;;277.80;267.20;;;6.10;99.90;;;;;;5032152;28;20482;-75
2023/11/04 00:25:16;;;;;;;260.83;251.43;;;6.20;99.90;;;;;;5032194;28;20994;-75
2023/11/04 00:27:43;;;;;;;260.77;251.27;;;6.20;99.90;;;;;;5031994;28;20461;-75
2023/11/04 00:30:10;;;;;;;230.87;222.97;;;6.30;99.90;;;;;;5032518;28;20458;-74
2023/11/04 00:32:37;;;;;;;173.27;167.47;;;6.50;99.90;;;;;;5032380;28;20457;-75
2023/11/04 00:35:05;;;;;;;122.07;117.83;;;6.70;99.90;;;;;;5032117;28;20482;-75
2023/11/04 00:37:32;;;;;;;81.33;78.33;;;6.90;99.90;;;;;;5032092;28;20452;-75
2023/11/04 00:40:04;;;;;;;68.00;65.50;;;7.00;99.90;;;;;;5032186;28;20450;-75
2023/11/04 00:42:30;;;;;;;61.80;59.50;;;7.00;99.90;;;;;;5031945;28;20444;-74
2023/11/04 00:44:57;;;;;;;52.20;50.10;;;7.10;99.90;;;;;;5031915;28;20484;-75
2023/11/04 00:47:24;;;;;;;49.80;47.70;;;7.10;99.90;;;;;;5031965;28;20511;-74
2023/11/04 00:49:51;;;;;;;39.87;38.17;;;7.10;99.90;;;;;;5031925;28;20463;-74
2023/11/04 00:52:18;;;;;;;36.10;34.43;;;7.20;99.90;;;;;;5032100;28;20503;-74
2023/11/04 00:54:45;;;;;;;26.60;25.40;;;7.20;99.90;;;;;;5031851;28;20448;-75
2023/11/04 00:57:13;;;;;;;21.53;20.33;;;7.20;99.90;;;;;;5031740;28;20929;-75
2023/11/04 00:59:40;;;;;;;19.50;18.50;;;7.10;99.90;;;;;;5031973;28;20462;-74
2023/11/04 01:02:10;;;;;;;18.43;17.53;;;7.00;99.90;;;;;;5032024;28;20538;-74
2023/11/04 01:04:36;;;;;;;19.20;18.10;;;6.90;99.90;;;;;;5031850;28;20479;-74
2023/11/04 01:07:05;;;;;;;24.27;23.17;;;6.80;99.90;;;;;;5032066;28;20456;-74
2023/11/04 01:09:31;;;;;;;26.97;25.77;;;6.60;99.90;;;;;;5035607;28;20498;-74
2023/11/04 01:11:58;;;;;;;29.87;28.67;;;6.60;99.90;;;;;;5035597;28;20459;-74
2023/11/04 01:14:26;;;;;;;30.80;29.50;;;6.50;99.90;;;;;;5035650;28;20473;-74
2023/11/04 01:16:53;;;;;;;35.50;34.10;;;6.40;99.90;;;;;;5035569;28;20606;-74
2023/11/04 01:19:20;;;;;;;43.10;41.50;;;6.40;99.90;;;;;;5035355;28;20459;-75
2023/11/04 01:21:47;;;;;;;47.57;45.73;;;6.30;99.90;;;;;;5035344;28;20451;-74
2023/11/04 01:24:14;;;;;;;49.87;48.07;;;6.30;99.90;;;;;;5035477;28;20928;-74
2023/11/04 01:26:40;;;;;;;53.40;51.30;;;6.30;99.90;;;;;;5035422;28;20455;-74
2023/11/04 01:29:10;;;;;;;74.50;71.90;;;6.30;99.90;;;;;;5035254;28;20451;-74
2023/11/04 01:31:38;;;;;;;67.33;64.93;;;6.30;99.90;;;;;;5035218;28;20458;-74
2023/11/04 01:34:05;;;;;;;74.27;71.57;;;6.30;99.90;;;;;;5035211;28;20457;-74
2023/11/04 01:36:32;;;;;;;83.30;80.43;;;6.30;99.90;;;;;;5034968;28;20458;-74
2023/11/04 01:38:59;;;;;;;112.00;108.27;;;6.20;99.90;;;;;;5035362;28;20867;-74
2023/11/04 01:41:25;;;;;;;124.40;120.27;;;6.10;99.90;;;;;;5035304;28;20455;-74
2023/11/04 01:43:52;;;;;;;134.90;130.43;;;6.10;99.90;;;;;;5034853;28;20480;-75
2023/11/04 01:46:22;;;;;;;149.53;144.63;;;6.10;99.90;;;;;;5034914;28;20478;-74
2023/11/04 01:48:50;;;;;;;182.30;176.37;;;6.00;99.90;;;;;;5034895;28;20513;-74
2023/11/04 01:51:17;;;;;;;184.07;178.07;;;6.10;99.90;;;;;;5034895;28;20462;-74
2023/11/04 01:53:48;;;;;;;175.23;169.47;;;6.20;99.90;;;;;;5034790;28;20505;-74
2023/11/04 01:56:19;;;;;;;193.10;186.77;;;6.30;99.90;;;;;;5034879;28;20896;-74
2023/11/04 01:58:47;;;;;;;195.67;189.37;;;6.20;99.90;;;;;;5034844;28;20453;-74
2023/11/04 02:01:15;;;;;;;173.60;167.93;;;6.20;99.90;;;;;;5034731;28;20557;-74
2023/11/04 02:03:41;;;;;;;155.30;150.03;;;6.30;99.90;;;;;;5034422;28;20831;-74
2023/11/04 02:06:10;;;;;;;167.47;162.03;;;6.30;99.90;;;;;;5034473;28;20450;-74
2023/11/04 02:08:36;;;;;;;155.37;150.10;;;6.30;99.90;;;;;;5034647;28;20545;-74
2023/11/04 02:11:04;;;;;;;165.43;160.00;;;6.30;99.90;;;;;;5034603;28;20478;-74
2023/11/04 02:13:31;;;;;;;159.00;153.70;;;6.30;99.90;;;;;;5034522;28;20448;-74
2023/11/04 02:15:58;;;;;;;157.07;151.97;;;6.50;99.90;;;;;;5034400;28;20453;-74
2023/11/04 02:18:25;;;;;;;127.73;123.20;;;6.50;99.90;;;;;;5034127;28;20444;-74
2023/11/04 02:20:53;;;;;;;125.20;121.10;;;6.60;99.90;;;;;;5034337;28;21112;-74
2023/11/04 02:23:21;;;;;;;119.67;115.67;;;6.60;99.90;;;;;;5034225;28;20451;-74
2023/11/04 02:25:48;;;;;;;125.23;121.10;;;6.60;99.90;;;;;;5034565;28;20987;-74
2023/11/04 02:28:15;;;;;;;125.03;120.93;;;6.60;99.90;;;;;;5034176;28;20456;-74
2023/11/04 02:30:42;;;;;;;126.07;121.97;;;6.50;99.90;;;;;;5034115;28;20456;-74
2023/11/04 02:33:09;;;;;;;128.63;124.43;;;6.60;99.90;;;;;;5034373;28;20535;-74
2023/11/04 02:35:36;;;;;;;126.17;122.07;;;6.60;99.90;;;;;;5034323;28;20826;-74
2023/11/04 02:38:03;;;;;;;122.13;118.07;;;6.70;99.90;;;;;;5033895;28;20989;-74
2023/11/04 02:40:31;;;;;;;97.57;94.27;;;6.80;99.90;;;;;;5033953;28;20470;-74
2023/11/04 02:42:58;;;;;;;77.47;74.37;;;7.00;99.90;;;;;;5033916;28;20455;-74
2023/11/04 02:45:25;;;;;;;63.30;60.90;;;7.10;99.90;;;;;;5033671;28;20479;-74
2023/11/04 02:47:52;;;;;;;52.77;50.77;;;7.20;99.90;;;;;;5034085;28;20452;-74
2023/11/04 02:50:19;;;;;;;35.97;34.37;;;7.30;99.90;;;;;;5033880;28;20455;-74
2023/11/04 02:52:46;;;;;;;29.57;28.37;;;7.40;99.90;;;;;;5033816;28;20454;-75
2023/11/04 02:55:12;;;;;;;29.70;28.40;;;7.40;99.90;;;;;;5033829;28;20455;-73
2023/11/04 02:57:41;;;;;;;26.80;25.50;;;7.50;99.90;;;;;;5033538;28;20762;-74
2023/11/04 03:00:09;;;;;;;23.80;22.50;;;7.60;99.80;;;;;;5033656;28;20464;-73
2023/11/04 03:02:36;;;;;;;22.07;20.87;;;7.70;99.70;;;;;;5033785;28;20868;-73
2023/11/04 03:05:04;;;;;;;15.10;14.30;;;7.80;99.10;;;;;;5033388;28;20480;-73
2023/11/04 03:07:31;;;;;;;11.90;10.90;;;7.90;98.80;;;;;;5033429;28;20461;-74
2023/11/04 03:09:58;;;;;;;8.73;8.03;;;8.00;97.30;;;;;;5033442;28;20452;-74
2023/11/04 03:12:25;;;;;;;8.77;8.00;;;8.00;97.30;;;;;;5033251;28;20454;-74
2023/11/04 03:14:53;;;;;;;8.40;6.50;;;8.10;97.40;;;;;;5033503;28;20444;-74
2023/11/04 03:17:20;;;;;;;9.60;6.57;;;8.20;97.40;;;;;;5033409;28;20554;-73
2023/11/04 03:19:47;;;;;;;5.73;5.10;;;8.20;97.40;;;;;;5033245;28;21028;-74
2023/11/04 03:22:14;;;;;;;6.23;5.50;;;8.20;97.40;;;;;;5033221;28;20448;-74
2023/11/04 03:24:44;;;;;;;6.97;4.73;;;8.30;97.40;;;;;;5033425;28;20563;-73
2023/11/04 03:27:12;;;;;;;9.50;5.03;;;8.30;97.40;;;;;;5033394;28;20494;-74
2023/11/04 03:29:39;;;;;;;6.10;4.40;;;8.30;97.40;;;;;;5033287;28;20459;-74
2023/11/04 03:32:09;;;;;;;5.87;5.30;;;8.30;97.40;;;;;;5033314;28;20456;-74
2023/11/04 03:34:36;;;;;;;5.37;4.87;;;8.20;97.40;;;;;;5033437;28;20490;-74
2023/11/04 03:37:04;;;;;;;6.97;4.80;;;8.20;97.40;;;;;;5033334;28;20454;-74
2023/11/04 03:39:32;;;;;;;5.70;5.20;;;8.20;97.40;;;;;;5033352;28;20539;-73
2023/11/04 03:41:59;;;;;;;5.40;4.90;;;8.20;97.40;;;;;;5033602;28;20464;-73
2023/11/04 03:44:26;;;;;;;5.23;4.73;;;8.20;97.40;;;;;;5033268;28;20452;-73
2023/11/04 03:46:54;;;;;;;5.57;5.07;;;8.10;97.40;;;;;;5033247;28;20794;-74
2023/11/04 03:49:22;;;;;;;6.60;6.00;;;8.10;97.40;;;;;;5033239;28;20467;-74
2023/11/04 03:51:49;;;;;;;8.00;7.40;;;8.00;98.10;;;;;;5032744;28;20452;-73
2023/11/04 03:54:16;;;;;;;7.50;6.90;;;8.00;97.90;;;;;;5032685;28;20462;-73
2023/11/04 03:56:43;;;;;;;7.30;6.70;;;8.10;98.20;;;;;;5032814;28;20810;-73
2023/11/04 03:59:09;;;;;;;7.90;7.30;;;8.00;98.50;;;;;;5032739;28;20473;-73
2023/11/04 04:01:40;;;;;;;7.80;7.20;;;8.10;98.40;;;;;;5032757;28;20959;-73
2023/11/04 04:04:07;;;;;;;10.97;10.17;;;8.00;98.90;;;;;;5032479;28;20456;-73
2023/11/04 04:06:36;;;;;;;10.80;10.10;;;8.00;98.50;;;;;;5032158;28;20513;-73
2023/11/04 04:09:03;;;;;;;16.47;15.60;;;7.90;99.20;;;;;;5032617;28;20460;-73
2023/11/04 04:11:30;;;;;;;21.60;20.40;;;7.80;99.80;;;;;;5032393;28;20941;-73
2023/11/04 04:13:58;;;;;;;22.60;21.60;;;7.80;99.90;;;;;;5032273;28;20452;-73
2023/11/04 04:16:25;;;;;;;28.43;27.13;;;7.80;99.90;;;;;;5032334;28;20538;-74
2023/11/04 04:18:53;;;;;;;32.67;30.97;;;7.80;99.90;;;;;;5032198;28;20458;-74
2023/11/04 04:21:20;;;;;;;35.83;34.33;;;7.80;99.90;;;;;;5032262;28;20479;-73
2023/11/04 04:23:49;;;;;;;40.90;39.20;;;7.80;99.90;;;;;;5032116;28;20547;-74
2023/11/04 04:26:20;;;;;;;37.27;35.80;;;7.80;99.90;;;;;;5032217;28;20852;-73
2023/11/04 04:28:47;;;;;;;35.83;34.13;;;7.90;99.90;;;;;;5032145;28;20448;-74
2023/11/04 04:31:14;;;;;;;32.50;31.20;;;7.90;99.90;;;;;;5032293;28;20451;-73
2023/11/04 04:33:41;;;;;;;26.80;25.67;;;8.00;99.90;;;;;;5032249;28;20452;-73
2023/11/04 04:36:08;;;;;;;21.20;20.20;;;8.10;99.90;;;;;;5032451;28;20451;-73
2023/11/04 04:38:35;;;;;;;18.70;17.70;;;8.20;99.90;;;;;;5032278;28;20456;-73
2023/11/04 04:41:04;;;;;;;15.77;14.97;;;8.30;99.50;;;;;;5032273;28;20478;-74
2023/11/04 04:43:31;;;;;;;14.40;13.50;;;8.40;99.00;;;;;;5034873;28;20449;-73
2023/11/04 04:45:58;;;;;;;11.83;10.60;;;8.40;98.70;;;;;;5035985;28;20570;-73
2023/11/04 04:48:25;;;;;;;10.87;10.07;;;8.40;98.20;;;;;;5036060;28;20510;-73
2023/11/04 04:50:52;;;;;;;12.80;11.90;;;8.30;98.40;;;;;;5036105;28;20454;-73
2023/11/04 04:53:19;;;;;;;13.03;12.13;;;8.30;99.10;;;;;;5036169;28;20458;-73
2023/11/04 04:55:45;;;;;;;16.50;15.60;;;8.30;99.50;;;;;;5036004;28;20539;-73
2023/11/04 04:58:14;;;;;;;15.60;14.80;;;8.20;99.90;;;;;;5035683;28;20455;-73
2023/11/04 05:00:40;;;;;;;22.10;21.00;;;8.30;99.90;;;;;;5035678;28;21067;-73
2023/11/04 05:03:07;;;;;;;23.83;22.77;;;8.30;99.90;;;;;;5035653;28;20458;-74
2023/11/04 05:05:34;;;;;;;25.43;24.13;;;8.30;99.90;;;;;;5035995;28;20506;-73
2023/11/04 05:08:01;;;;;;;20.70;19.60;;;8.40;99.90;;;;;;5035524;28;20452;-73
2023/11/04 05:10:28;;;;;;;20.63;19.60;;;8.40;99.90;;;;;;5035656;28;20461;-74
2023/11/04 05:12:55;;;;;;;21.27;20.30;;;8.40;99.90;;;;;;5035855;28;20475;-73
2023/11/04 05:15:23;;;;;;;21.33;20.23;;;8.40;99.90;;;;;;5035466;28;20486;-73
2023/11/04 05:17:50;;;;;;;22.57;21.47;;;8.40;99.90;;;;;;5035627;28;20449;-74
2023/11/04 05:20:17;;;;;;;24.67;23.47;;;8.30;99.90;;;;;;5027336;28;20460;-74
2023/11/04 05:22:44;;;;;;;26.97;25.87;;;8.30;99.90;;;;;;5035682;28;20831;-74
2023/11/04 05:25:11;;;;;;;30.73;29.47;;;8.20;99.90;;;;;;5035324;28;20475;-74
2023/11/04 05:27:38;;;;;;;34.60;33.20;;;8.10;99.90;;;;;;5035232;28;20459;-74
2023/11/04 05:30:06;;;;;;;50.10;48.20;;;8.10;99.90;;;;;;5035598;28;20458;-74
2023/11/04 05:32:35;;;;;;;66.93;64.13;;;8.00;99.90;;;;;;5035293;28;20451;-74
2023/11/04 05:35:02;;;;;;;58.30;56.03;;;8.10;99.90;;;;;;5035284;28;20454;-73
2023/11/04 05:37:29;;;;;;;61.77;59.57;;;8.10;99.90;;;;;;5035140;28;20447;-73
2023/11/04 05:39:56;;;;;;;63.77;61.47;;;8.20;99.90;;;;;;5035127;28;20449;-74
2023/11/04 05:42:24;;;;;;;71.27;68.70;;;8.30;99.90;;;;;;5034909;28;20548;-74
2023/11/04 05:44:53;;;;;;;72.17;69.57;;;8.30;99.90;;;;;;5035329;28;20459;-73
2023/11/04 05:47:20;;;;;;;61.70;59.50;;;8.30;99.90;;;;;;5035284;28;20539;-74
2023/11/04 05:49:48;;;;;;;51.67;49.70;;;8.20;99.90;;;;;;5035042;28;20449;-73
2023/11/04 05:52:15;;;;;;;56.50;54.40;;;8.20;99.90;;;;;;5035328;28;20456;-73
2023/11/04 05:54:42;;;;;;;54.23;52.23;;;8.20;99.90;;;;;;5034384;28;20448;-74
2023/11/04 05:57:09;;;;;;;57.37;55.07;;;8.20;99.90;;;;;;5034745;28;20801;-74
2023/11/04 05:59:36;;;;;;;61.80;59.30;;;8.10;99.90;;;;;;5035165;28;20481;-74
2023/11/04 06:02:03;;;;;;;59.80;57.50;;;8.10;99.90;;;;;;5034974;28;20482;-74
2023/11/04 06:04:30;;;;;;;58.23;55.53;;;8.00;99.90;;;;;;5034707;28;20484;-74
2023/11/04 06:06:58;;;;;;;65.70;62.80;;;8.00;99.90;;;;;;5034559;28;20482;-74
2023/11/04 06:09:26;;;;;;;69.10;66.40;;;8.00;99.90;;;;;;5034481;28;20457;-74
2023/11/04 06:11:53;;;;;;;69.33;66.20;;;8.00;99.90;;;;;;5034755;28;20456;-74
2023/11/04 06:14:20;;;;;;;76.57;73.77;;;8.00;99.90;;;;;;5034407;28;20460;-74
2023/11/04 06:16:47;;;;;;;84.07;81.07;;;8.00;99.90;;;;;;5034430;28;20447;-74
2023/11/04 06:19:14;;;;;;;73.50;70.70;;;8.00;99.90;;;;;;5025850;28;20953;-74
2023/11/04 06:21:41;;;;;;;77.30;74.50;;;8.00;99.90;;;;;;5023795;28;20449;-74
2023/11/04 06:24:10;;;;;;;80.97;78.07;;;8.00;99.90;;;;;;5025177;28;20455;-74
2023/11/04 06:26:37;;;;;;;64.40;62.00;;;8.00;99.90;;;;;;5024661;28;20468;-76
2023/11/04 06:29:04;;;;;;;55.27;53.07;;;8.00;99.90;;;;;;5024910;28;20775;-73
2023/11/04 06:31:31;;;;;;;58.43;56.23;;;7.90;99.90;;;;;;5019743;28;20449;-75
2023/11/04 06:33:58;;;;;;;71.37;68.47;;;7.70;99.90;;;;;;5024155;28;20452;-74
2023/11/04 06:36:31;;;;;;;112.67;108.87;;;7.60;99.90;;;;;;5025776;28;20450;-73
2023/11/04 06:38:58;;;;;;;150.10;145.07;;;7.50;99.90;;;;;;5022191;28;20448;-75
2023/11/04 06:41:27;;;;;;;185.33;179.13;;;7.40;99.90;;;;;;5027318;28;20455;-75
2023/11/04 06:43:54;;;;;;;216.53;208.70;;;7.30;99.90;;;;;;5020580;28;20445;-75
2023/11/04 06:46:21;;;;;;;240.73;232.50;;;7.30;99.90;;;;;;5022554;28;20491;-75
2023/11/04 06:48:48;;;;;;;261.07;252.07;;;7.30;99.90;;;;;;5024420;28;20449;-75
2023/11/04 06:51:18;;;;;;;287.13;277.03;;;7.30;99.90;;;;;;5021314;28;20932;-75
2023/11/04 06:53:45;;;;;;;316.63;304.73;;;7.30;99.90;;;;;;5023577;28;20445;-75
2023/11/04 06:56:13;;;;;;;311.93;299.80;;;7.40;99.90;;;;;;5021806;28;20476;-75
2023/11/04 06:58:41;;;;;;;298.50;286.90;;;7.50;99.90;;;;;;5021655;28;20456;-75
2023/11/04 07:01:13;;;;;;;284.50;273.20;;;7.60;99.90;;;;;;5022261;28;20455;-75
2023/11/04 07:03:40;;;;;;;300.00;288.33;;;7.70;99.90;;;;;;5022912;28;20444;-75
2023/11/04 07:06:12;;;;;;;278.67;267.97;;;7.80;99.90;;;;;;5023245;28;20475;-75
2023/11/04 07:08:39;;;;;;;267.90;258.00;;;7.90;99.90;;;;;;5022809;28;20531;-75
2023/11/04 07:11:06;;;;;;;251.60;242.50;;;8.10;99.90;;;;;;5022080;28;20537;-75
2023/11/04 07:13:34;;;;;;;234.37;226.27;;;8.20;99.90;;;;;;5022026;28;20481;-75
2023/11/04 07:16:02;;;;;;;205.83;198.73;;;8.30;99.90;;;;;;5023346;28;20476;-75
2023/11/04 07:18:29;;;;;;;173.60;167.80;;;8.40;99.90;;;;;;5024215;28;20449;-75
2023/11/04 07:20:59;;;;;;;141.97;137.27;;;8.50;99.90;;;;;;5022530;28;20445;-75
2023/11/04 07:23:26;;;;;;;122.23;117.40;;;8.50;99.90;;;;;;5024842;28;20538;-75
2023/11/04 07:25:53;;;;;;;116.67;112.73;;;8.60;99.90;;;;;;5021013;28;20897;-75
2023/11/04 07:28:22;;;;;;;119.30;115.30;;;8.70;99.90;;;;;;5022632;28;20889;-75
2023/11/04 07:30:49;;;;;;;94.70;91.40;;;8.70;99.90;;;;;;5021426;28;20457;-75
2023/11/04 07:33:17;;;;;;;86.23;83.13;;;8.80;99.90;;;;;;5023255;28;20445;-75
2023/11/04 07:35:44;;;;;;;64.73;61.93;;;8.90;99.90;;;;;;5023267;28;20537;-75
2023/11/04 07:38:11;;;;;;;53.80;51.50;;;9.00;99.90;;;;;;5021314;28;20854;-75
2023/11/04 07:40:38;;;;;;;48.87;46.40;;;9.00;99.90;;;;;;5024145;28;20549;-75
2023/11/04 07:43:05;;;;;;;41.77;40.17;;;9.10;99.90;;;;;;5021841;28;20468;-75
2023/11/04 07:45:32;;;;;;;42.70;41.10;;;9.20;99.90;;;;;;5023703;28;21004;-74
2023/11/04 07:47:59;;;;;;;36.07;34.57;;;9.30;99.90;;;;;;5022349;28;20446;-75
2023/11/04 07:50:27;;;;;;;28.60;26.70;;;9.40;99.90;;;;;;5021638;28;21048;-75
2023/11/04 07:52:54;;;;;;;20.57;19.67;;;9.50;99.90;;;;;;5021115;28;20535;-74
2023/11/04 07:55:21;;;;;;;17.47;16.47;;;9.50;99.90;;;;;;5021958;28;20451;-75
2023/11/04 07:57:49;;;;;;;14.63;13.80;;;9.50;99.90;;;;;;5022301;28;20448;-74
2023/11/04 08:00:17;;;;;;;12.13;11.43;;;9.60;99.60;;;;;;5021144;28;20459;-75
2023/11/04 08:02:43;;;;;;;12.10;11.33;;;9.60;99.50;;;;;;5021419;28;20451;-75
2023/11/04 08:05:10;;;;;;;13.93;13.13;;;9.60;99.00;;;;;;5022938;28;20451;-75
2023/11/04 08:07:39;;;;;;;15.83;15.03;;;9.60;99.50;;;;;;5019685;28;20490;-75
2023/11/04 08:10:08;;;;;;;19.87;18.87;;;9.60;99.90;;;;;;5024883;28;20453;-75
2023/11/04 08:12:36;;;;;;;20.73;19.63;;;9.70;99.90;;;;;;5020947;28;20515;-75
2023/11/04 08:15:04;;;;;;;23.17;22.07;;;9.70;99.90;;;;;;5020801;28;20484;-74
2023/11/04 08:17:32;;;;;;;18.07;17.17;;;9.80;99.90;;;;;;5023089;28;21016;-76
2023/11/04 08:20:01;;;;;;;13.90;13.13;;;9.80;99.90;;;;;;5021922;28;20478;-75
2023/11/04 08:22:28;;;;;;;16.33;15.40;;;9.70;99.80;;;;;;5019572;28;20451;-75
2023/11/04 08:24:56;;;;;;;14.50;13.60;;;9.70;99.90;;;;;;5020448;28;20474;-75
2023/11/04 08:27:23;;;;;;;15.83;15.03;;;9.70;99.90;;;;;;5020953;28;20483;-75
2023/11/04 08:29:49;;;;;;;20.10;19.10;;;9.80;99.90;;;;;;5022826;28;20446;-75
2023/11/04 08:32:16;;;;;;;16.83;15.90;;;9.80;99.90;;;;;;5021050;28;20454;-75
2023/11/04 08:34:43;;;;;;;18.37;16.83;;;10.00;99.40;;;;;;5021427;28;20452;-75
2023/11/04 08:37:10;;;;;;;16.37;15.57;;;10.10;98.80;;;;;;5020077;28;20502;-75
2023/11/04 08:39:37;;;;;;;14.87;14.00;;;10.30;98.80;;;;;;5022396;28;20459;-75
2023/11/04 08:42:06;;;;;;;13.33;12.50;;;10.40;97.80;;;;;;5020180;28;20451;-75
2023/11/04 08:44:33;;;;;;;8.57;7.87;;;10.50;97.80;;;;;;5022735;28;20448;-75
2023/11/04 08:47:00;;;;;;;6.83;6.23;;;10.50;97.80;;;;;;5019201;28;20483;-76
2023/11/04 08:49:27;;;;;;;7.17;6.47;;;10.70;97.90;;;;;;5024870;28;20459;-75
2023/11/04 08:51:54;;;;;;;6.30;5.70;;;10.80;97.90;;;;;;5020633;28;20539;-75
2023/11/04 08:54:21;;;;;;;5.73;4.60;;;10.90;98.00;;;;;;5020901;28;20457;-75
2023/11/04 08:56:49;;;;;;;4.77;3.90;;;10.90;98.00;;;;;;5020271;28;20820;-74
2023/11/04 08:59:17;;;;;;;4.93;3.60;;;10.80;97.90;;;;;;5020623;28;20463;-75
2023/11/04 09:01:44;;;;;;;7.03;3.10;;;10.70;97.90;;;;;;5021394;28;20950;-75
2023/11/04 09:04:11;;;;;;;5.20;3.77;;;10.60;97.80;;;;;;5022586;28;20446;-75
2023/11/04 09:06:38;;;;;;;5.57;3.90;;;10.60;97.90;;;;;;5020890;28;20464;-74
2023/11/04 09:09:07;;;;;;;4.30;3.70;;;10.60;97.80;;;;;;5022421;28;20480;-75
2023/11/04 09:11:35;;;;;;;5.10;3.70;;;10.70;97.90;;;;;;5022683;28;20506;-74
2023/11/04 09:14:04;;;;;;;7.10;3.63;;;10.80;98.00;;;;;;5021539;28;20481;-74
2023/11/04 09:16:32;;;;;;;5.60;3.50;;;10.90;98.00;;;;;;5020324;28;20444;-72
2023/11/04 09:18:59;;;;;;;5.53;3.50;;;10.90;98.00;;;;;;5021739;28;20456;-72
2023/11/04 09:21:26;;;;;;;4.90;2.90;;;10.90;98.00;;;;;;5022354;28;20540;-72
2023/11/04 09:23:53;;;;;;;7.10;2.80;;;10.90;98.00;;;;;;5020441;28;20938;-71
2023/11/04 09:26:20;;;;;;;5.90;2.90;;;10.80;97.90;;;;;;5020385;28;20486;-72
2023/11/04 09:28:48;;;;;;;4.00;2.93;;;10.80;98.00;;;;;;5022175;28;20548;-72
2023/11/04 09:31:14;;;;;;;4.83;3.43;;;10.80;97.90;;;;;;5024153;28;20454;-72
2023/11/04 09:33:43;;;;;;;5.20;3.87;;;10.90;98.00;;;;;;5024920;28;20445;-72
2023/11/04 09:36:12;;;;;;;5.13;4.23;;;11.00;98.00;;;;;;5026242;28;20821;-72
2023/11/04 09:38:39;;;;;;;4.93;3.33;;;11.30;98.10;;;;;;5024609;28;20450;-72
2023/11/04 09:41:07;;;;;;;4.70;2.27;;;11.50;96.80;;;;;;5024354;28;20450;-72
2023/11/04 09:43:34;;;;;;;5.57;2.27;;;11.70;95.10;;;;;;5025765;28;20449;-72
2023/11/04 09:46:02;;;;;;;3.77;1.63;;;12.00;95.10;;;;;;5024597;28;20446;-72
2023/11/04 09:48:32;;;;;;;4.50;1.57;;;12.30;91.90;;;;;;5023826;28;20451;-72
2023/11/04 09:51:02;;;;;;;4.17;1.50;;;12.50;87.20;;;;;;5024135;28;20925;-72
2023/11/04 09:53:33;;;;;;;4.20;1.30;;;12.70;86.90;;;;;;5023586;28;20936;-72
2023/11/04 09:56:01;;;;;;;7.70;1.70;;;12.70;80.40;;;;;;5024402;28;20448;-72
2023/11/04 09:58:30;;;;;;;4.30;1.40;;;12.70;79.40;;;;;;5023425;28;20443;-72
2023/11/04 10:00:57;;;;;;;5.83;1.27;;;12.70;79.30;;;;;;5020918;28;21011;-71
2023/11/04 10:03:25;;;;;;;5.20;1.00;;;12.60;75.90;;;;;;5023569;28;20442;-72
2023/11/04 10:05:52;;;;;;;3.90;1.13;;;12.60;77.10;;;;;;5023238;28;20445;-72
2023/11/04 10:08:20;;;;;;;8.90;1.10;;;12.40;79.00;;;;;;5025888;28;20999;-72
2023/11/04 10:10:47;;;;;;;4.00;1.17;;;12.20;74.70;;;;;;5023477;28;20540;-72
2023/11/04 10:13:14;;;;;;;4.87;1.03;;;12.10;78.90;;;;;;5022604;28;20451;-72
2023/11/04 10:15:41;;;;;;;5.73;1.50;;;12.00;75.60;;;;;;5024358;28;20452;-72
2023/11/04 10:18:08;;;;;;;4.10;1.20;;;11.90;73.40;;;;;;5023241;28;20474;-72
2023/11/04 10:20:35;;;;;;;6.27;1.27;;;12.00;78.70;;;;;;5022563;28;20446;-72
2023/11/04 10:23:03;;;;;;;4.70;1.30;;;12.00;78.70;;;;;;5022471;28;20464;-72
2023/11/04 10:25:31;;;;;;;5.33;1.50;;;12.00;74.20;;;;;;5025101;28;20490;-72
2023/11/04 10:27:58;;;;;;;5.10;1.27;;;11.80;78.20;;;;;;5020412;28;21002;-72
2023/11/04 10:30:25;;;;;;;4.70;1.50;;;11.70;78.40;;;;;;5023208;28;20493;-72
2023/11/04 10:32:54;;;;;;;4.53;1.40;;;11.70;78.40;;;;;;5022575;28;20460;-71
2023/11/04 10:35:22;;;;;;;5.50;1.50;;;11.60;76.60;;;;;;5023718;28;20459;-72
2023/11/04 10:37:52;;;;;;;9.00;2.83;;;11.70;77.50;;;;;;5022841;28;20441;-71
2023/11/04 10:40:21;;;;;;;7.63;1.40;;;11.70;74.50;;;;;;5022062;28;20452;-72
2023/11/04 10:42:55;;;;;;;8.10;1.40;;;11.70;70.60;;;;;;5023290;28;20458;-72
2023/11/04 10:45:27;;;;;;;9.00;1.40;;;11.70;78.10;;;;;;5023628;28;20947;-72
2023/11/04 10:47:59;;;;;;;6.30;1.60;;;11.60;75.40;;;;;;5022343;28;20478;-71
2023/11/04 10:50:29;;;;;;;4.93;1.40;;;11.50;77.70;;;;;;5023165;28;20451;-72
2023/11/04 10:53:09;;;;;;;9.10;1.50;;;11.50;78.20;;;;;;5021666;28;20455;-72
2023/11/04 10:55:45;;;;;;;4.37;1.20;;;11.50;78.30;;;;;;5020170;28;20520;-72
2023/11/04 10:58:21;;;;;;;5.93;1.50;;;11.40;78.20;;;;;;5022358;28;20446;-71
2023/11/04 11:00:48;;;;;;;10.00;1.70;;;11.30;78.10;;;;;;5025156;28;20509;-72
2023/11/04 11:03:16;;;;;;;5.30;1.53;;;11.20;78.00;;;;;;5033279;28;20455;-72
2023/11/04 11:05:43;;;;;;;8.23;1.53;;;11.10;78.80;;;;;;5034012;28;20454;-72
2023/11/04 11:08:10;;;;;;;4.83;1.63;;;10.90;77.80;;;;;;5033485;28;20866;-72
2023/11/04 11:10:42;;;;;;;5.23;1.83;;;10.70;81.60;;;;;;5033653;28;20460;-72
2023/11/04 11:13:13;;;;;;;6.77;2.17;;;10.60;86.70;;;;;;5033409;28;20455;-73
2023/11/04 11:15:42;;;;;;;6.93;2.27;;;10.50;91.00;;;;;;5033435;28;20462;-73
2023/11/04 11:18:11;;;;;;;8.67;3.00;;;10.30;91.10;;;;;;5033419;28;20882;-75
2023/11/04 11:20:38;;;;;;;8.77;4.30;;;10.20;92.20;;;;;;5033449;28;20459;-75
2023/11/04 11:23:08;;;;;;;10.13;8.67;;;10.00;94.40;;;;;;5033581;28;20814;-76
2023/11/04 11:25:37;;;;;;;16.57;15.07;;;9.90;99.90;;;;;;5033212;28;20451;-75
2023/11/04 11:28:15;;;;;;;46.90;44.27;;;9.90;99.90;;;;;;5032850;28;20499;-76
2023/11/04 11:30:43;;;;;;;111.60;107.63;;;9.90;99.90;;;;;;5033453;28;20968;-76
2023/11/04 11:33:11;;;;;;;242.97;235.50;;;9.80;99.90;;;;;;5032896;28;20936;-76
2023/11/04 11:35:57;;;;;;;424.60;412.03;;;9.90;99.90;;;;;;5033115;28;20515;-76
2023/11/04 11:38:24;;;;;;;652.90;631.03;;;9.90;99.90;;;;;;5032824;28;20495;-76
2023/11/04 11:40:51;;;;;;;709.33;682.83;;;10.10;99.90;;;;;;5032741;28;20466;-76
2023/11/04 11:43:19;;;;;;;704.90;679.47;;;10.20;99.90;;;;;;5032872;28;20460;-76
2023/11/04 11:45:47;;;;;;;717.90;689.27;;;10.20;99.90;;;;;;5032429;28;20502;-74
2023/11/04 11:48:14;;;;;;;756.77;725.77;;;10.20;99.90;;;;;;5015868;28;20503;-75
2023/11/04 11:50:42;;;;;;;730.87;703.00;;;10.10;99.90;;;;;;5012615;28;20453;-76
2023/11/04 11:53:10;;;;;;;828.57;789.37;;;10.10;99.90;;;;;;5012523;28;20460;-76
2023/11/04 11:55:38;;;;;;;847.10;805.00;;;10.10;99.90;;;;;;5024027;28;20494;-78
2023/11/04 11:58:05;;;;;;;851.87;808.33;;;10.10;99.90;;;;;;5032042;28;20462;-77
2023/11/04 12:00:31;;;;;;;863.40;818.50;;;10.00;99.90;;;;;;5032197;28;20456;-77
2023/11/04 12:03:01;;;;;;;889.87;841.03;;;10.00;99.90;;;;;;5025569;28;20807;-77
2023/11/04 12:05:28;;;;;;;922.17;869.17;;;9.90;99.90;;;;;;5011742;28;20461;-76
2023/11/04 12:07:55;;;;;;;935.63;878.77;;;9.80;99.90;;;;;;5011076;28;20480;-76
2023/11/04 12:10:23;;;;;;;917.70;863.20;;;9.70;99.90;;;;;;5011825;28;20460;-76
2023/11/04 12:12:50;;;;;;;948.10;887.63;;;9.60;99.90;;;;;;5011666;28;20455;-76
2023/11/04 12:15:17;;;;;;;966.87;905.43;;;9.50;99.90;;;;;;5020115;28;20455;-76
2023/11/04 12:17:54;;;;;;;967.70;904.60;;;9.50;99.90;;;;;;5031925;28;20446;-76
2023/11/04 12:20:26;;;;;;;934.37;873.87;;;9.50;99.90;;;;;;5032023;28;20496;-76
2023/11/04 12:22:54;;;;;;;947.07;885.37;;;9.50;99.90;;;;;;5031717;28;20455;-75
2023/11/04 12:25:22;;;;;;;950.90;889.40;;;9.40;99.90;;;;;;5032068;28;20453;-76
2023/11/04 12:27:49;;;;;;;924.37;865.60;;;9.50;99.90;;;;;;5031313;28;20485;-75
2023/11/04 12:30:16;;;;;;;926.03;867.53;;;9.50;99.90;;;;;;5023987;28;20458;-76
2023/11/04 12:32:43;;;;;;;919.60;861.83;;;9.50;99.90;;;;;;5031932;28;20806;-76
2023/11/04 12:35:10;;;;;;;926.97;867.70;;;9.50;99.90;;;;;;5031944;28;20458;-75